TFFR/PTP METAR and TAF weather

Enter ICAO airport designator
Station Type Date Time Source
TFFR METAR 2020/07/09 16:30 UTC NOAA

TFFR 091630Z AUTO 12015KT 070V150 9999 SCT040/// SCT047/// 31/22 Q1016 NOSIG


Station Type Date Time Source
TFFR Decoded METAR 2020/07/09 16:30 UTC NOAA

Le Raizet, Guadeloupe, Guadeloupe (TFFR) 16-16N 061-31W 11M
Jul 09, 2020 - 12:30 PM EDT / 2020.07.09 1630 UTC
Wind: from the ESE (120 degrees) at 17 MPH (15 KT) (direction variable):0
Visibility: greater than 7 mile(s):0
Sky conditions: partly cloudy
Temperature: 87 F (31 C)
Heat index: 92.3 F (33.5 C):1
Dew Point: 71 F (22 C)
Relative Humidity: 58%
Pressure (altimeter): 30.00 in. Hg (1016 hPa)
ob: TFFR 091630Z AUTO 12015KT 070V150 9999 SCT040/// SCT047/// 31/22 Q1016 NOSIG
cycle: 16

Station Type Date Time Source
TFFR TAF 2020/07/09 12:57 UTC NOAA

TAF TAF TFFR 091100Z 0912/1012 10010KT 9999 SCT025 PROB30
TEMPO 0912/0916 4000 SHRA SCT020TCU PROB30
TEMPO 1006/1012 4000 SHRA BKN020TCU

Example: see airport list